createdAt,value
2018-06-10T00:02:10.788Z,24.18
2018-06-10T00:04:39.363Z,24.24
2018-06-10T00:07:07.946Z,24.14
2018-06-10T00:09:36.490Z,24.16
2018-06-10T00:12:04.987Z,24.18
2018-06-10T00:14:33.565Z,23.89
2018-06-10T00:17:02.181Z,23.99
2018-06-10T00:19:30.658Z,24.01
2018-06-10T00:22:00.154Z,24.09
2018-06-10T00:24:28.722Z,24.04
2018-06-10T00:26:57.300Z,24.07
2018-06-10T00:29:25.951Z,24.04
2018-06-10T00:31:54.599Z,24.07
2018-06-10T00:34:23.219Z,24.05
2018-06-10T00:36:51.823Z,24.02
2018-06-10T00:39:20.400Z,23.99
2018-06-10T00:41:48.964Z,23.89
2018-06-10T00:44:17.507Z,23.82
2018-06-10T00:46:46.196Z,23.75
2018-06-10T00:49:14.716Z,23.78
2018-06-10T00:51:43.245Z,23.63
2018-06-10T00:54:11.866Z,23.64
2018-06-10T00:56:49.859Z,23.72
2018-06-10T00:59:18.392Z,23.68
2018-06-10T01:01:46.901Z,23.71
2018-06-10T01:04:15.416Z,23.65
2018-06-10T01:06:44.068Z,23.64
2018-06-10T01:09:12.652Z,23.63
2018-06-10T01:11:41.169Z,23.59
2018-06-10T01:14:09.863Z,23.55
2018-06-10T01:16:38.433Z,23.50
2018-06-10T01:19:06.910Z,23.39
2018-06-10T01:21:35.424Z,23.43
2018-06-10T01:24:03.904Z,23.36
2018-06-10T01:26:37.786Z,23.19
2018-06-10T01:29:06.313Z,23.15
2018-06-10T01:31:34.823Z,23.18
2018-06-10T01:34:03.356Z,23.16
2018-06-10T01:36:31.890Z,23.21
2018-06-10T01:39:00.469Z,23.17
2018-06-10T01:41:29.080Z,23.18
2018-06-10T01:43:57.674Z,22.94
2018-06-10T01:46:26.290Z,22.93
2018-06-10T01:48:54.837Z,22.87
2018-06-10T01:51:23.358Z,22.78
2018-06-10T01:53:51.790Z,22.82
2018-06-10T01:56:20.290Z,22.81
2018-06-10T01:58:48.828Z,22.75
2018-06-10T02:01:17.328Z,22.81
2018-06-10T02:03:45.798Z,22.85
2018-06-10T02:06:14.433Z,22.93
2018-06-10T02:08:43.018Z,22.93
2018-06-10T02:11:11.585Z,22.84
2018-06-10T02:13:40.133Z,22.82
2018-06-10T02:16:08.769Z,22.75
2018-06-10T02:18:37.299Z,22.66
2018-06-10T02:21:05.729Z,22.71
2018-06-10T02:23:34.227Z,22.52
2018-06-10T02:26:02.877Z,22.42
2018-06-10T02:28:31.392Z,22.50
2018-06-10T02:30:59.964Z,22.57
2018-06-10T02:33:28.529Z,22.49
2018-06-10T02:35:57.045Z,22.35
2018-06-10T02:38:26.074Z,22.17
2018-06-10T02:40:54.508Z,22.17
2018-06-10T02:43:23.039Z,22.21
2018-06-10T02:45:52.445Z,22.28
2018-06-10T02:48:21.588Z,22.29
2018-06-10T02:50:50.122Z,22.36
2018-06-10T02:53:18.691Z,22.33
2018-06-10T02:55:49.859Z,22.25
2018-06-10T02:58:18.432Z,22.35
2018-06-10T03:00:46.975Z,22.45
2018-06-10T03:03:16.795Z,22.47
2018-06-10T03:05:45.568Z,22.49
2018-06-10T03:08:14.135Z,22.41
2018-06-10T03:10:43.564Z,22.50
2018-06-10T03:13:12.532Z,22.48
2018-06-10T03:15:41.120Z,22.44
2018-06-10T03:18:09.606Z,22.49
2018-06-10T03:20:38.675Z,22.44
2018-06-10T03:23:07.274Z,22.19
2018-06-10T03:25:35.835Z,22.15
2018-06-10T03:28:05.352Z,22.33
2018-06-10T03:30:35.264Z,22.37
2018-06-10T03:33:03.995Z,22.26
2018-06-10T03:35:32.667Z,22.24
2018-06-10T03:38:03.810Z,22.11
2018-06-10T03:40:32.340Z,22.17
2018-06-10T03:43:00.808Z,22.13
2018-06-10T03:45:31.100Z,22.16
2018-06-10T03:47:59.836Z,22.18
2018-06-10T03:50:28.298Z,22.20
2018-06-10T03:52:56.809Z,22.32
2018-06-10T03:55:27.004Z,22.36
2018-06-10T03:57:56.411Z,22.37
2018-06-10T04:00:24.951Z,22.41
2018-06-10T04:02:53.448Z,22.41
2018-06-10T04:05:22.006Z,22.46
2018-06-10T04:07:50.511Z,22.55
2018-06-10T04:10:18.985Z,22.63
2018-06-10T04:12:47.440Z,22.52
2018-06-10T04:15:15.960Z,22.43
2018-06-10T04:17:44.497Z,22.43
2018-06-10T04:20:13.058Z,22.34
2018-06-10T04:22:41.705Z,22.45
2018-06-10T04:25:11.383Z,22.61
2018-06-10T04:27:40.379Z,22.49
2018-06-10T04:30:09.725Z,22.43
2018-06-10T04:32:38.187Z,22.44
2018-06-10T04:35:07.825Z,22.53
2018-06-10T04:37:36.972Z,22.53
2018-06-10T04:40:05.429Z,22.54
2018-06-10T04:42:33.934Z,22.65
2018-06-10T04:45:02.458Z,22.77
2018-06-10T04:47:30.930Z,22.72
2018-06-10T04:49:59.383Z,22.56
2018-06-10T04:52:28.888Z,22.52
2018-06-10T04:54:57.444Z,22.55
2018-06-10T04:57:26.039Z,22.57
2018-06-10T04:59:54.508Z,22.60
2018-06-10T05:02:23.064Z,22.53
2018-06-10T05:04:51.541Z,22.76
2018-06-10T05:07:20.056Z,22.67
2018-06-10T05:09:48.728Z,22.73
2018-06-10T05:12:17.197Z,22.70
2018-06-10T05:14:45.733Z,22.86
2018-06-10T05:17:14.318Z,22.96
2018-06-10T05:19:43.843Z,22.98
2018-06-10T05:22:12.295Z,23.04
2018-06-10T05:24:40.697Z,23.10
2018-06-10T05:27:09.277Z,23.35
2018-06-10T05:29:37.749Z,23.46
2018-06-10T05:32:06.232Z,23.59
2018-06-10T05:34:34.767Z,23.31
2018-06-10T05:37:03.306Z,23.31
2018-06-10T05:39:31.809Z,23.51
2018-06-10T05:42:00.241Z,23.60
2018-06-10T05:44:28.750Z,23.70
2018-06-10T05:46:57.313Z,23.98
2018-06-10T05:49:25.771Z,24.25
2018-06-10T05:51:54.304Z,24.10
2018-06-10T05:54:22.881Z,24.20
2018-06-10T05:56:51.396Z,24.26
2018-06-10T05:59:19.986Z,24.52
2018-06-10T06:01:48.565Z,24.69
2018-06-10T06:04:17.181Z,24.73
2018-06-10T06:06:45.731Z,24.91
2018-06-10T06:09:14.228Z,25.18
2018-06-10T06:11:42.748Z,25.30
2018-06-10T06:14:11.229Z,25.46
2018-06-10T06:16:39.798Z,25.69
2018-06-10T06:19:08.289Z,25.68
2018-06-10T06:21:36.813Z,26.13
2018-06-10T06:24:05.429Z,26.09
2018-06-10T06:26:34.026Z,26.36
2018-06-10T06:29:02.569Z,27.05
2018-06-10T06:31:31.139Z,27.25
2018-06-10T06:33:59.717Z,27.20
2018-06-10T06:36:28.292Z,27.35
2018-06-10T06:38:57.731Z,28.01
2018-06-10T06:41:26.454Z,28.08
2018-06-10T06:43:54.966Z,28.21
2018-06-10T06:46:23.568Z,28.34
2018-06-10T06:48:52.117Z,28.60
2018-06-10T06:51:20.580Z,28.34
2018-06-10T06:53:49.035Z,28.48
2018-06-10T06:56:17.550Z,29.11
2018-06-10T06:58:46.141Z,29.39
2018-06-10T07:01:15.184Z,29.35
2018-06-10T07:03:44.470Z,29.10
2018-06-10T07:06:12.933Z,29.26
2018-06-10T07:08:41.458Z,29.87
2018-06-10T07:11:10.019Z,29.31
2018-06-10T07:13:38.651Z,29.14
2018-06-10T07:16:07.155Z,29.88
2018-06-10T07:18:35.693Z,30.42
2018-06-10T07:21:05.106Z,31.76
2018-06-10T07:23:33.578Z,31.51
2018-06-10T07:26:02.086Z,31.18
2018-06-10T07:28:30.570Z,31.47
2018-06-10T07:30:59.135Z,32.01
2018-06-10T07:33:27.675Z,31.89
2018-06-10T07:35:56.145Z,31.86
2018-06-10T07:38:24.656Z,30.98
2018-06-10T07:40:53.225Z,32.03
2018-06-10T07:43:21.674Z,31.12
2018-06-10T07:45:50.156Z,31.06
2018-06-10T07:48:18.690Z,30.98
2018-06-10T07:50:47.206Z,29.99
2018-06-10T07:53:15.799Z,30.68
2018-06-10T07:55:44.455Z,30.67
2018-06-10T07:58:12.955Z,30.17
2018-06-10T08:00:41.473Z,30.94
2018-06-10T08:03:10.132Z,30.95
2018-06-10T08:05:38.690Z,31.15
2018-06-10T08:08:07.176Z,32.59
2018-06-10T08:10:36.538Z,32.53
2018-06-10T08:13:05.134Z,33.65
2018-06-10T08:15:33.645Z,33.05
2018-06-10T08:18:02.166Z,34.35
2018-06-10T08:20:30.666Z,34.58
2018-06-10T08:22:59.341Z,35.53
2018-06-10T08:25:27.893Z,33.59
2018-06-10T08:27:56.501Z,34.79
2018-06-10T08:30:24.918Z,35.31
2018-06-10T08:32:53.386Z,35.65
2018-06-10T08:35:21.820Z,35.34
2018-06-10T08:37:50.245Z,35.85
2018-06-10T08:40:18.817Z,35.91
2018-06-10T08:42:47.488Z,37.72
2018-06-10T08:45:15.975Z,37.50
2018-06-10T08:47:44.449Z,35.47
2018-06-10T08:50:12.922Z,34.92
2018-06-10T08:52:41.457Z,34.25
2018-06-10T08:55:09.879Z,35.73
2018-06-10T08:57:38.382Z,34.33
2018-06-10T09:00:06.925Z,35.52
2018-06-10T09:02:35.412Z,36.26
2018-06-10T09:05:04.151Z,36.18
2018-06-10T09:07:33.360Z,37.65
2018-06-10T09:10:01.870Z,36.45
2018-06-10T09:12:30.285Z,37.78
2018-06-10T09:14:58.777Z,37.02
2018-06-10T09:17:27.304Z,36.79
2018-06-10T09:19:55.713Z,36.22
2018-06-10T09:22:24.231Z,35.89
2018-06-10T09:24:52.893Z,37.36
2018-06-10T09:27:21.382Z,37.14
2018-06-10T09:29:49.882Z,35.30
2018-06-10T09:32:18.313Z,35.35
2018-06-10T09:34:46.778Z,36.35
2018-06-10T09:37:15.330Z,37.21
2018-06-10T09:39:43.813Z,38.41
2018-06-10T09:42:12.405Z,36.88
2018-06-10T09:44:40.841Z,37.18
2018-06-10T09:47:09.299Z,36.76
2018-06-10T09:49:37.744Z,37.26
2018-06-10T09:52:06.236Z,36.19
2018-06-10T09:54:34.800Z,37.09
2018-06-10T09:57:03.299Z,37.19
2018-06-10T09:59:32.619Z,35.34
2018-06-10T10:02:01.149Z,34.47
2018-06-10T10:04:29.782Z,34.52
2018-06-10T10:06:58.274Z,34.44
2018-06-10T10:09:27.442Z,35.04
2018-06-10T10:11:56.724Z,34.54
2018-06-10T10:14:25.223Z,34.63
2018-06-10T10:16:53.758Z,35.92
2018-06-10T10:19:22.219Z,37.34
2018-06-10T10:21:50.690Z,36.14
2018-06-10T10:24:19.189Z,35.76
2018-06-10T10:26:47.637Z,36.68
2018-06-10T10:29:16.073Z,37.92
2018-06-10T10:31:44.633Z,37.63
2018-06-10T10:34:13.057Z,36.89
2018-06-10T10:36:41.524Z,37.99
2018-06-10T10:39:09.994Z,37.97
2018-06-10T10:41:38.445Z,37.86
2018-06-10T10:44:06.966Z,38.05
2018-06-10T10:46:35.402Z,36.97
2018-06-10T10:49:03.825Z,36.81
2018-06-10T10:51:32.330Z,36.53
2018-06-10T10:54:00.799Z,36.76
2018-06-10T10:56:29.357Z,36.82
2018-06-10T10:58:57.716Z,35.85
2018-06-10T11:01:26.745Z,36.00
2018-06-10T11:03:55.529Z,35.91
2018-06-10T11:06:23.872Z,36.01
2018-06-10T11:08:52.278Z,35.17
2018-06-10T11:11:20.701Z,33.93
2018-06-10T11:13:49.106Z,34.52
2018-06-10T11:16:17.496Z,34.45
2018-06-10T11:18:45.863Z,34.67
2018-06-10T11:21:14.260Z,34.06
2018-06-10T11:23:42.654Z,33.27
2018-06-10T11:26:11.007Z,33.00
2018-06-10T11:28:39.565Z,33.03
2018-06-10T11:31:07.999Z,32.70
2018-06-10T11:33:36.359Z,32.43
2018-06-10T11:36:04.728Z,32.66
2018-06-10T11:38:34.055Z,33.02
2018-06-10T11:41:02.457Z,31.77
2018-06-10T11:43:30.819Z,31.76
2018-06-10T11:45:59.179Z,31.86
2018-06-10T11:48:28.391Z,31.68
2018-06-10T11:50:56.811Z,31.81
2018-06-10T11:53:25.268Z,31.61
2018-06-10T11:55:53.673Z,31.53
2018-06-10T11:58:22.080Z,31.50
2018-06-10T12:00:50.552Z,31.21
2018-06-10T12:03:19.019Z,31.43
2018-06-10T12:05:47.413Z,31.20
2018-06-10T12:08:15.840Z,30.75
2018-06-10T12:10:44.223Z,30.76
2018-06-10T12:13:12.703Z,30.46
2018-06-10T12:15:41.191Z,30.65
2018-06-10T12:18:09.611Z,30.37
2018-06-10T12:20:37.993Z,30.22
2018-06-10T12:23:06.461Z,30.60
2018-06-10T12:25:34.877Z,30.31
2018-06-10T12:28:03.283Z,30.06
2018-06-10T12:30:31.657Z,30.03
2018-06-10T12:33:00.078Z,29.94
2018-06-10T12:35:28.500Z,30.03
2018-06-10T12:37:56.964Z,30.12
2018-06-10T12:40:25.388Z,30.43
2018-06-10T12:42:53.763Z,30.17
2018-06-10T12:45:22.145Z,30.20
2018-06-10T12:47:50.886Z,30.45
2018-06-10T12:50:19.306Z,30.59
2018-06-10T12:52:48.373Z,30.57
2018-06-10T12:55:16.789Z,30.37
2018-06-10T12:57:45.305Z,30.34
2018-06-10T13:00:13.715Z,30.27
2018-06-10T13:02:42.159Z,30.09
2018-06-10T13:05:10.627Z,30.17
2018-06-10T13:07:39.327Z,30.16
2018-06-10T13:10:08.252Z,30.08
2018-06-10T13:12:36.707Z,30.21
2018-06-10T13:15:05.157Z,29.97
2018-06-10T13:17:33.853Z,29.80
2018-06-10T13:20:02.288Z,29.91
2018-06-10T13:22:30.807Z,29.99
2018-06-10T13:24:59.181Z,29.99
2018-06-10T13:27:28.330Z,29.84
2018-06-10T13:29:56.748Z,29.90
2018-06-10T13:32:25.185Z,29.95
2018-06-10T13:34:53.598Z,29.54
2018-06-10T13:37:21.977Z,29.54
2018-06-10T13:39:50.407Z,29.61
2018-06-10T13:42:18.787Z,29.73
2018-06-10T13:44:47.177Z,29.70
2018-06-10T13:47:15.827Z,29.34
2018-06-10T13:49:44.200Z,29.54
2018-06-10T13:52:12.578Z,29.44
2018-06-10T13:54:40.986Z,29.42
2018-06-10T13:57:09.352Z,29.32
2018-06-10T13:59:37.733Z,29.19
2018-06-10T14:02:07.083Z,29.10
2018-06-10T14:04:36.129Z,29.08
2018-06-10T14:07:04.499Z,29.04
2018-06-10T14:09:32.889Z,29.02
2018-06-10T14:12:01.330Z,28.99
2018-06-10T14:14:29.895Z,28.83
2018-06-10T14:16:58.297Z,28.75
2018-06-10T14:19:26.683Z,28.59
2018-06-10T14:21:55.519Z,28.53
2018-06-10T14:24:23.903Z,28.56
2018-06-10T14:26:52.280Z,28.24
2018-06-10T14:29:20.687Z,28.41
2018-06-10T14:31:49.100Z,28.39
2018-06-10T14:34:17.480Z,28.25
2018-06-10T14:36:45.953Z,28.25
2018-06-10T14:39:14.330Z,28.19
2018-06-10T14:41:42.765Z,28.14
2018-06-10T14:44:11.194Z,28.11
2018-06-10T14:46:39.712Z,27.98
2018-06-10T14:49:08.289Z,27.78
2018-06-10T14:51:36.712Z,27.72
2018-06-10T14:54:05.197Z,27.69
2018-06-10T14:56:33.599Z,27.60
2018-06-10T14:59:01.970Z,27.33
2018-06-10T15:01:30.402Z,27.19
2018-06-10T15:03:58.851Z,27.00
2018-06-10T15:06:27.370Z,26.73
2018-06-10T15:08:55.828Z,26.53
2018-06-10T15:11:24.375Z,26.31
2018-06-10T15:13:53.532Z,26.25
2018-06-10T15:16:22.201Z,26.14
2018-06-10T15:18:50.650Z,26.06
2018-06-10T15:21:19.055Z,25.92
2018-06-10T15:23:48.131Z,25.87
2018-06-10T15:26:16.616Z,25.83
2018-06-10T15:28:45.112Z,25.97
2018-06-10T15:31:13.543Z,25.84
2018-06-10T15:33:42.056Z,25.64
2018-06-10T15:36:10.431Z,25.59
2018-06-10T15:38:38.829Z,25.42
2018-06-10T15:41:07.222Z,25.51
2018-06-10T15:43:36.500Z,25.57
2018-06-10T15:46:05.524Z,25.48
2018-06-10T15:48:33.965Z,25.56
2018-06-10T15:51:02.484Z,25.59
2018-06-10T15:53:30.879Z,25.55
2018-06-10T15:55:59.280Z,25.51
2018-06-10T15:58:27.738Z,25.47
2018-06-10T16:00:56.142Z,25.48
2018-06-10T16:03:24.568Z,25.49
2018-06-10T16:05:52.968Z,25.57
2018-06-10T16:08:21.449Z,25.56
2018-06-10T16:10:49.871Z,25.50
2018-06-10T16:13:18.389Z,25.58
2018-06-10T16:15:47.237Z,25.46
2018-06-10T16:18:15.664Z,25.44
2018-06-10T16:20:44.070Z,25.45
2018-06-10T16:23:12.518Z,25.50
2018-06-10T16:25:40.931Z,25.48
2018-06-10T16:28:09.568Z,25.51
2018-06-10T16:30:38.060Z,25.52
2018-06-10T16:33:06.456Z,25.49
2018-06-10T16:35:34.866Z,25.55
2018-06-10T16:38:03.341Z,25.56
2018-06-10T16:40:31.830Z,25.58
2018-06-10T16:43:00.333Z,25.55
2018-06-10T16:45:29.542Z,25.59
2018-06-10T16:47:59.315Z,25.68
2018-06-10T16:50:28.468Z,25.68
2018-06-10T16:52:56.994Z,25.63
2018-06-10T16:55:25.631Z,25.63
2018-06-10T16:57:54.106Z,25.68
2018-06-10T17:00:22.511Z,25.70
2018-06-10T17:02:50.916Z,25.63
2018-06-10T17:05:19.593Z,25.58
2018-06-10T17:07:47.984Z,25.62
2018-06-10T17:10:16.491Z,25.65
2018-06-10T17:12:45.290Z,25.53
2018-06-10T17:15:14.522Z,25.53
2018-06-10T17:17:43.018Z,25.51
2018-06-10T17:20:11.981Z,25.52
2018-06-10T17:22:54.263Z,25.48
2018-06-10T17:25:22.642Z,25.47
2018-06-10T17:27:51.060Z,25.45
2018-06-10T17:30:19.957Z,25.43
2018-06-10T17:32:48.436Z,25.45
2018-06-10T17:35:16.844Z,25.38
2018-06-10T17:37:45.261Z,25.35
2018-06-10T17:40:13.702Z,25.27
2018-06-10T17:42:42.143Z,25.28
2018-06-10T17:45:10.654Z,25.19
2018-06-10T17:47:39.172Z,25.24
2018-06-10T17:50:08.129Z,25.26
2018-06-10T17:52:36.520Z,25.27
2018-06-10T17:55:04.956Z,25.19
2018-06-10T17:57:33.374Z,25.24
2018-06-10T18:00:01.789Z,25.19
2018-06-10T18:02:30.171Z,25.24
2018-06-10T18:04:58.554Z,25.26
2018-06-10T18:07:26.924Z,25.26
2018-06-10T18:09:55.372Z,25.26
2018-06-10T18:12:23.821Z,25.20
2018-06-10T18:14:52.208Z,25.09
2018-06-10T18:17:20.617Z,25.01
2018-06-10T18:19:49.472Z,25.00
2018-06-10T18:22:17.922Z,25.00
2018-06-10T18:24:46.318Z,24.95
2018-06-10T18:27:14.679Z,24.96
2018-06-10T18:29:43.064Z,24.94
2018-06-10T18:32:11.466Z,24.96
2018-06-10T18:34:39.815Z,24.84
2018-06-10T18:37:08.192Z,24.85
2018-06-10T18:39:36.743Z,24.87
2018-06-10T18:42:05.131Z,24.85
2018-06-10T18:44:33.488Z,24.85
2018-06-10T18:47:02.091Z,24.86
2018-06-10T18:49:31.049Z,24.89
2018-06-10T18:51:59.436Z,24.83
2018-06-10T18:54:27.794Z,24.75
2018-06-10T18:56:56.263Z,24.67
2018-06-10T18:59:25.324Z,24.58
2018-06-10T19:01:53.731Z,24.64
2018-06-10T19:04:22.088Z,24.56
2018-06-10T19:06:50.428Z,24.60
2018-06-10T19:09:18.902Z,24.40
2018-06-10T19:11:47.296Z,24.32
2018-06-10T19:14:15.653Z,24.26
2018-06-10T19:16:44.034Z,24.27
2018-06-10T19:19:12.399Z,24.28
2018-06-10T19:21:41.407Z,24.19
2018-06-10T19:24:09.805Z,24.10
2018-06-10T19:26:38.237Z,24.10
2018-06-10T19:29:06.689Z,23.99
2018-06-10T19:31:35.080Z,23.96
2018-06-10T19:34:03.531Z,24.01
2018-06-10T19:36:32.572Z,23.91
2018-06-10T19:39:01.504Z,23.93
2018-06-10T19:41:29.987Z,23.87
2018-06-10T19:43:58.424Z,23.87
2018-06-10T19:46:26.829Z,23.72
2018-06-10T19:48:55.230Z,23.68
2018-06-10T19:51:23.668Z,23.55
2018-06-10T19:53:52.040Z,23.50
2018-06-10T19:56:20.440Z,23.43
2018-06-10T19:58:48.900Z,23.40
2018-06-10T20:01:17.319Z,23.40
2018-06-10T20:03:45.688Z,23.42
2018-06-10T20:06:14.073Z,23.33
2018-06-10T20:08:42.453Z,23.31
2018-06-10T20:11:10.813Z,23.34
2018-06-10T20:13:39.540Z,23.28
2018-06-10T20:16:07.987Z,23.19
2018-06-10T20:18:36.481Z,23.20
2018-06-10T20:21:04.855Z,23.15
2018-06-10T20:23:33.213Z,23.04
2018-06-10T20:26:01.619Z,22.96
2018-06-10T20:28:30.407Z,22.93
2018-06-10T20:30:58.751Z,22.93
2018-06-10T20:33:27.372Z,22.86
2018-06-10T20:35:55.780Z,22.83
2018-06-10T20:38:24.571Z,22.81
2018-06-10T20:40:53.052Z,22.80
2018-06-10T20:43:21.402Z,22.75
2018-06-10T20:45:49.748Z,22.69
2018-06-10T20:48:18.159Z,22.65
2018-06-10T20:50:46.577Z,22.58
2018-06-10T20:53:15.042Z,22.50
2018-06-10T20:55:43.976Z,22.50
2018-06-10T20:58:12.637Z,22.42
2018-06-10T21:00:41.083Z,22.39
2018-06-10T21:03:09.524Z,22.40
2018-06-10T21:05:37.877Z,22.34
2018-06-10T21:08:06.488Z,22.36
2018-06-10T21:10:34.848Z,22.36
2018-06-10T21:13:03.339Z,22.28
2018-06-10T21:15:31.732Z,22.18
2018-06-10T21:18:00.078Z,22.14
2018-06-10T21:20:28.454Z,22.13
2018-06-10T21:22:57.396Z,22.12
2018-06-10T21:25:25.768Z,22.09
2018-06-10T21:27:54.147Z,22.05
2018-06-10T21:30:22.551Z,22.00
2018-06-10T21:32:50.951Z,22.00
2018-06-10T21:35:19.420Z,22.00
2018-06-10T21:37:47.837Z,21.98
2018-06-10T21:40:16.236Z,21.89
2018-06-10T21:42:44.705Z,21.81
2018-06-10T21:45:13.100Z,21.83
2018-06-10T21:47:41.497Z,21.82
2018-06-10T21:50:09.891Z,21.73
2018-06-10T21:52:38.296Z,21.76
2018-06-10T21:55:06.722Z,21.75
2018-06-10T21:57:35.114Z,21.68
2018-06-10T22:00:03.487Z,21.65
2018-06-10T22:02:31.835Z,21.65
2018-06-10T22:05:00.264Z,21.62
2018-06-10T22:07:28.615Z,21.55
2018-06-10T22:09:56.967Z,21.48
2018-06-10T22:12:25.327Z,21.51
2018-06-10T22:14:53.720Z,21.50
2018-06-10T22:17:22.119Z,21.51
2018-06-10T22:19:50.485Z,21.48
2018-06-10T22:22:18.835Z,21.47
2018-06-10T22:24:47.222Z,21.44
2018-06-10T22:27:15.604Z,21.39
2018-06-10T22:29:44.002Z,21.36
2018-06-10T22:32:12.387Z,21.39
2018-06-10T22:34:40.758Z,21.37
2018-06-10T22:37:09.165Z,21.36
2018-06-10T22:39:37.651Z,21.31
2018-06-10T22:42:06.241Z,21.25
2018-06-10T22:44:34.611Z,21.20
2018-06-10T22:47:02.991Z,21.14
2018-06-10T22:49:31.369Z,21.10
2018-06-10T22:51:59.797Z,21.10
2018-06-10T22:54:39.970Z,21.11
2018-06-10T22:57:08.899Z,21.05
2018-06-10T22:59:37.274Z,21.07
2018-06-10T23:02:07.668Z,21.07
2018-06-10T23:04:36.060Z,20.99
2018-06-10T23:07:04.491Z,20.97
2018-06-10T23:09:32.854Z,20.96
2018-06-10T23:12:01.251Z,20.96
2018-06-10T23:14:29.607Z,20.92
2018-06-10T23:16:57.981Z,20.92
2018-06-10T23:19:26.332Z,20.88
2018-06-10T23:21:54.724Z,20.84
2018-06-10T23:24:23.073Z,20.82
2018-06-10T23:26:51.468Z,20.80
2018-06-10T23:29:19.836Z,20.69
2018-06-10T23:31:48.192Z,20.66
2018-06-10T23:34:16.569Z,20.66
2018-06-10T23:36:45.256Z,20.70
2018-06-10T23:39:13.780Z,20.68
2018-06-10T23:41:42.377Z,20.67
2018-06-10T23:44:10.744Z,20.67
2018-06-10T23:46:39.142Z,20.65
2018-06-10T23:49:07.671Z,20.53
2018-06-10T23:51:36.095Z,20.57
2018-06-10T23:54:04.651Z,20.51
2018-06-10T23:56:33.024Z,20.44
2018-06-10T23:59:01.379Z,20.41
